Time;durP1;ratioP1;P1;durP2;ratioP2;P2;SDS_P1;SDS_P2;PMS_P1;PMS_P2;Temp;Humidity;BMP_temperature;BMP_pressure;BME280_temperature;BME280_humidity;BME280_pressure;Samples;Min_cycle;Max_cycle;Signal;HPM_P1;HPM_P2
2021/09/13 00:01:09;;;;;;;;;;;16.50;99.90;;;;;;5961125;23;25072;-77
2021/09/13 00:03:38;;;;;;;;;;;16.60;99.90;;;;;;5963238;23;20573;-76
2021/09/13 00:06:04;;;;;;;;;;;16.50;99.90;;;;;;5961881;23;25110;-76
2021/09/13 00:08:29;;;;;;;;;;;16.60;99.90;;;;;;5959689;23;25063;-77
2021/09/13 00:10:55;;;;;;;;;;;16.50;99.90;;;;;;5961753;23;25101;-77
2021/09/13 00:13:22;;;;;;;;;;;16.50;99.90;;;;;;5960481;23;25085;-77
2021/09/13 00:15:49;;;;;;;;;;;16.70;99.90;;;;;;5961688;23;25096;-77
2021/09/13 00:18:17;;;;;;;;;;;16.60;99.90;;;;;;5959804;23;25039;-76
2021/09/13 00:20:43;;;;;;;;;;;16.60;99.90;;;;;;5960389;23;25110;-76
2021/09/13 00:23:08;;;;;;;;;;;16.60;99.90;;;;;;5961691;23;25099;-76
2021/09/13 00:25:34;;;;;;;;;;;16.60;99.90;;;;;;5960113;23;25056;-77
2021/09/13 00:27:59;;;;;;;;;;;16.60;99.90;;;;;;5961348;23;25044;-77
2021/09/13 00:30:25;;;;;;;;;;;16.60;99.90;;;;;;5939283;23;25080;-77
2021/09/13 00:32:50;;;;;;;;;;;16.60;99.90;;;;;;5940121;23;20569;-76
2021/09/13 00:35:18;;;;;;;;;;;16.60;99.90;;;;;;5935918;23;25052;-77
2021/09/13 00:37:44;;;;;;;;;;;16.60;99.90;;;;;;5963270;23;20166;-77
2021/09/13 00:40:12;;;;;;;;;;;16.60;99.90;;;;;;5963352;23;25100;-77
2021/09/13 00:42:40;;;;;;;;;;;16.50;99.90;;;;;;5939074;23;20193;-77
2021/09/13 00:45:06;;;;;;;;;;;16.60;99.90;;;;;;5939183;23;20181;-77
2021/09/13 00:47:31;;;;;;;;;;;16.50;99.90;;;;;;5957785;23;20128;-77
2021/09/13 00:50:01;;;;;;;;;;;16.60;99.90;;;;;;5938547;23;20137;-76
2021/09/13 00:52:27;;;;;;;;;;;16.60;99.90;;;;;;5935373;23;25075;-76
2021/09/13 00:54:52;;;;;;;;;;;16.50;99.90;;;;;;5936249;23;20592;-76
2021/09/13 00:57:20;;;;;;;;;;;16.50;99.90;;;;;;5935786;23;25061;-76
2021/09/13 00:59:49;;;;;;;;;;;16.60;99.90;;;;;;5958651;23;25061;-76
2021/09/13 01:02:14;;;;;;;;;;;16.50;99.90;;;;;;5936036;23;25054;-76
2021/09/13 01:04:40;;;;;;;;;;;16.50;99.90;;;;;;5936405;23;20560;-76
2021/09/13 01:07:05;;;;;;;;;;;16.50;99.90;;;;;;5931846;23;25088;-76
2021/09/13 01:09:31;;;;;;;;;;;16.50;99.90;;;;;;5934103;23;25065;-75
2021/09/13 01:11:59;;;;;;;;;;;16.50;99.90;;;;;;5937046;23;20170;-76
2021/09/13 01:14:32;;;;;;;;;;;16.60;99.90;;;;;;5932817;23;20159;-76
2021/09/13 01:17:00;;;;;;;;;;;16.60;99.90;;;;;;5935591;23;20147;-76
2021/09/13 01:19:26;;;;;;;;;;;16.60;99.90;;;;;;5933331;23;25067;-77
2021/09/13 01:21:51;;;;;;;;;;;16.70;99.90;;;;;;5958102;23;25049;-77
2021/09/13 01:24:17;;;;;;;;;;;16.70;99.90;;;;;;5935966;23;25044;-77
2021/09/13 01:26:45;;;;;;;;;;;16.60;99.90;;;;;;5935853;23;25051;-77
2021/09/13 01:29:21;;;;;;;;;;;16.70;99.90;;;;;;5957988;23;20169;-76
2021/09/13 01:31:46;;;;;;;;;;;16.70;99.90;;;;;;5935406;23;25074;-76
2021/09/13 01:34:12;;;;;;;;;;;16.70;99.90;;;;;;5937537;23;25055;-76
2021/09/13 01:36:37;;;;;;;;;;;16.70;99.90;;;;;;5955358;23;20205;-76
2021/09/13 01:39:03;;;;;;;;;;;16.70;99.90;;;;;;5935062;23;25081;-76
2021/09/13 01:41:28;;;;;;;;;;;16.70;99.90;;;;;;5933825;23;25065;-77
2021/09/13 01:43:53;;;;;;;;;;;16.70;99.90;;;;;;5937870;23;25053;-76
2021/09/13 01:46:19;;;;;;;;;;;16.80;99.90;;;;;;5935599;23;20525;-76
2021/09/13 01:48:44;;;;;;;;;;;16.70;99.90;;;;;;5936021;23;20111;-76
2021/09/13 01:51:10;;;;;;;;;;;16.70;99.90;;;;;;5934761;23;25057;-76
2021/09/13 01:53:35;;;;;;;;;;;16.70;99.90;;;;;;5955461;23;25082;-76
2021/09/13 01:56:01;;;;;;;;;;;16.80;99.90;;;;;;5936658;23;25050;-76
2021/09/13 01:58:26;;;;;;;;;;;16.80;99.90;;;;;;5937037;23;25055;-76
2021/09/13 02:00:54;;;;;;;;;;;16.80;99.90;;;;;;5936749;23;25058;-77
2021/09/13 02:03:22;;;;;;;;;;;16.80;99.90;;;;;;5936878;23;25052;-76
2021/09/13 02:05:48;;;;;;;;;;;16.80;99.90;;;;;;5938477;23;25149;-76
2021/09/13 02:08:13;;;;;;;;;;;16.80;99.90;;;;;;5950410;23;25040;-76
2021/09/13 02:10:39;;;;;;;;;;;16.80;99.90;;;;;;5947896;23;20102;-76
2021/09/13 02:13:04;;;;;;;;;;;16.80;99.90;;;;;;5946894;23;25058;-76
2021/09/13 02:15:30;;;;;;;;;;;16.70;99.90;;;;;;5943917;23;25093;-75
2021/09/13 02:17:55;;;;;;;;;;;16.80;99.90;;;;;;5939758;23;25030;-76
2021/09/13 02:20:21;;;;;;;;;;;16.70;99.90;;;;;;5964389;23;25125;-76
2021/09/13 02:22:49;;;;;;;;;;;16.70;99.90;;;;;;5942532;23;20160;-76
2021/09/13 02:25:17;;;;;;;;;;;16.70;99.90;;;;;;5939302;23;20122;-76
2021/09/13 02:27:42;;;;;;;;;;;16.70;99.90;;;;;;5939989;23;20155;-76
2021/09/13 02:30:08;;;;;;;;;;;16.70;99.90;;;;;;5944210;23;20140;-76
2021/09/13 02:32:33;;;;;;;;;;;16.60;99.90;;;;;;5941650;23;25048;-76
2021/09/13 02:35:04;;;;;;;;;;;16.60;99.90;;;;;;5940622;23;20133;-76
2021/09/13 02:37:33;;;;;;;;;;;16.70;99.90;;;;;;5937225;23;25041;-76
2021/09/13 02:39:58;;;;;;;;;;;16.60;99.90;;;;;;5941195;23;25042;-76
2021/09/13 02:42:26;;;;;;;;;;;16.60;99.90;;;;;;5937164;23;25119;-76
2021/09/13 02:44:55;;;;;;;;;;;16.70;99.90;;;;;;5941218;23;20573;-76
2021/09/13 02:47:20;;;;;;;;;;;16.70;99.90;;;;;;5942117;23;20359;-76
2021/09/13 02:49:48;;;;;;;;;;;16.70;99.90;;;;;;5942254;23;25047;-77
2021/09/13 02:52:16;;;;;;;;;;;16.70;99.90;;;;;;5945926;23;25097;-76
2021/09/13 02:54:41;;;;;;;;;;;16.70;99.90;;;;;;5938461;23;25065;-76
2021/09/13 02:57:10;;;;;;;;;;;16.70;99.90;;;;;;5938439;23;25057;-76
2021/09/13 02:59:35;;;;;;;;;;;16.80;99.90;;;;;;5939289;23;25133;-76
2021/09/13 03:02:00;;;;;;;;;;;16.70;99.90;;;;;;5940733;23;20163;-76
2021/09/13 03:04:26;;;;;;;;;;;16.70;99.90;;;;;;5960553;23;25118;-76
2021/09/13 03:06:54;;;;;;;;;;;16.70;99.90;;;;;;5959458;23;20174;-76
2021/09/13 03:09:22;;;;;;;;;;;16.70;99.90;;;;;;5938883;23;25136;-77
2021/09/13 03:11:48;;;;;;;;;;;16.80;99.90;;;;;;5934470;23;20127;-76
2021/09/13 03:14:13;;;;;;;;;;;16.80;99.90;;;;;;5936635;23;25040;-76
2021/09/13 03:16:41;;;;;;;;;;;16.80;99.90;;;;;;5938647;23;25089;-76
2021/09/13 03:19:06;;;;;;;;;;;16.70;99.90;;;;;;5938135;23;20255;-76
2021/09/13 03:21:32;;;;;;;;;;;16.90;99.90;;;;;;5940959;23;25036;-76
2021/09/13 03:23:59;;;;;;;;;;;16.80;99.90;;;;;;5938505;23;20279;-76
2021/09/13 03:26:25;;;;;;;;;;;16.80;99.90;;;;;;5938274;23;20232;-76
2021/09/13 03:28:53;;;;;;;;;;;16.90;99.90;;;;;;5938639;23;25100;-76
2021/09/13 03:31:18;;;;;;;;;;;16.80;99.90;;;;;;5939341;23;25088;-76
2021/09/13 03:33:47;;;;;;;;;;;16.80;99.90;;;;;;5945718;23;25102;-77
2021/09/13 03:36:12;;;;;;;;;;;16.70;99.90;;;;;;5947592;23;20353;-77
2021/09/13 03:38:40;;;;;;;;;;;16.80;99.90;;;;;;5937859;23;25040;-76
2021/09/13 03:41:06;;;;;;;;;;;16.80;99.90;;;;;;5938859;23;25056;-76
2021/09/13 03:43:31;;;;;;;;;;;16.70;99.90;;;;;;5937723;23;25055;-76
2021/09/13 03:46:00;;;;;;;;;;;16.80;99.90;;;;;;5960317;23;20149;-76
2021/09/13 03:48:25;;;;;;;;;;;16.80;99.90;;;;;;5937326;23;25103;-76
2021/09/13 03:50:53;;;;;;;;;;;16.70;99.90;;;;;;5940155;23;20113;-77
2021/09/13 03:53:19;;;;;;;;;;;16.70;99.90;;;;;;5942719;23;25047;-76
2021/09/13 03:55:44;;;;;;;;;;;16.70;99.90;;;;;;5935953;23;20588;-76
2021/09/13 03:58:10;;;;;;;;;;;16.70;99.90;;;;;;5939885;23;20547;-76
2021/09/13 04:00:36;;;;;;;;;;;16.70;99.90;;;;;;5938939;23;25052;-76
2021/09/13 04:03:04;;;;;;;;;;;16.70;99.90;;;;;;5941033;23;20206;-76
2021/09/13 04:05:29;;;;;;;;;;;16.70;99.90;;;;;;5937951;23;25129;-76
2021/09/13 04:10:25;;;;;;;;;;;16.70;99.90;;;;;;5941702;23;25046;-76
2021/09/13 04:12:51;;;;;;;;;;;16.70;99.90;;;;;;5940907;23;20524;-76
2021/09/13 04:15:19;;;;;;;;;;;16.70;99.90;;;;;;5937423;23;20123;-76
2021/09/13 04:17:44;;;;;;;;;;;16.70;99.90;;;;;;5961638;23;25027;-76
2021/09/13 04:20:12;;;;;;;;;;;16.60;99.90;;;;;;5939107;23;25049;-76
2021/09/13 04:22:37;;;;;;;;;;;16.60;99.90;;;;;;5939952;23;20174;-76
2021/09/13 04:25:05;;;;;;;;;;;16.60;99.90;;;;;;5939019;23;20111;-76
2021/09/13 04:27:31;;;;;;;;;;;16.60;99.90;;;;;;5939660;23;25053;-76
2021/09/13 04:29:57;;;;;;;;;;;16.60;99.90;;;;;;5939569;23;25048;-76
2021/09/13 04:32:25;;;;;;;;;;;16.60;99.90;;;;;;5939219;23;25076;-76
2021/09/13 04:34:50;;;;;;;;;;;16.60;99.90;;;;;;5938706;23;20339;-76
2021/09/13 04:37:16;;;;;;;;;;;16.60;99.90;;;;;;5940041;23;20411;-75
2021/09/13 04:39:41;;;;;;;;;;;16.60;99.90;;;;;;5936288;23;25078;-76
2021/09/13 04:42:07;;;;;;;;;;;16.50;99.90;;;;;;5963944;23;25076;-76
2021/09/13 04:44:34;;;;;;;;;;;16.60;99.90;;;;;;5965238;23;20149;-76
2021/09/13 04:47:00;;;;;;;;;;;16.50;99.90;;;;;;5964578;23;25094;-75
2021/09/13 04:49:28;;;;;;;;;;;16.60;99.90;;;;;;5941052;23;20154;-76
2021/09/13 04:51:53;;;;;;;;;;;16.60;99.90;;;;;;5965633;23;20153;-76
2021/09/13 04:54:19;;;;;;;;;;;16.60;99.90;;;;;;5966972;23;20126;-75
2021/09/13 04:56:44;;;;;;;;;;;16.60;99.90;;;;;;5966865;23;20107;-76
2021/09/13 04:59:10;;;;;;;;;;;16.60;99.90;;;;;;5961536;23;25093;-74
2021/09/13 05:01:36;;;;;;;;;;;16.60;99.90;;;;;;5964547;23;20086;-73
2021/09/13 05:04:02;;;;;;;;;;;16.60;99.90;;;;;;5963242;23;25049;-74
2021/09/13 05:06:28;;;;;;;;;;;16.60;99.90;;;;;;5960363;23;25075;-76
2021/09/13 05:08:54;;;;;;;;;;;16.70;99.90;;;;;;5940429;23;20153;-76
2021/09/13 05:11:19;;;;;;;;;;;16.80;99.90;;;;;;5969949;23;20067;-77
2021/09/13 05:13:45;;;;;;;;;;;16.90;99.90;;;;;;5965906;23;25102;-77
2021/09/13 05:16:13;;;;;;;;;;;16.80;99.90;;;;;;5968586;23;20110;-77
2021/09/13 05:18:39;;;;;;;;;;;16.80;99.90;;;;;;5969360;23;25045;-78
2021/09/13 05:21:05;;;;;;;;;;;16.70;99.90;;;;;;5965411;23;20102;-77
2021/09/13 05:23:30;;;;;;;;;;;16.80;99.90;;;;;;5970472;23;19976;-77
2021/09/13 05:25:56;;;;;;;;;;;16.80;99.90;;;;;;5966242;23;25035;-77
2021/09/13 05:28:27;;;;;;;;;;;16.80;99.90;;;;;;5966271;23;25093;-77
2021/09/13 05:30:53;;;;;;;;;;;16.70;99.90;;;;;;5963848;23;20119;-76
2021/09/13 05:33:18;;;;;;;;;;;16.90;99.90;;;;;;5963667;23;20098;-77
2021/09/13 05:35:46;;;;;;;;;;;16.80;99.90;;;;;;5961334;23;20234;-77
2021/09/13 05:38:12;;;;;;;;;;;16.90;99.90;;;;;;5960433;23;25051;-77
2021/09/13 05:40:40;;;;;;;;;;;16.90;99.90;;;;;;5957514;23;20141;-77
2021/09/13 05:43:05;;;;;;;;;;;16.90;99.90;;;;;;5943533;23;25059;-76
2021/09/13 05:45:36;;;;;;;;;;;16.90;99.90;;;;;;5942012;23;25068;-77
2021/09/13 05:48:04;;;;;;;;;;;16.90;99.90;;;;;;5941892;23;25066;-77
2021/09/13 05:50:35;;;;;;;;;;;16.90;99.90;;;;;;5967431;23;25058;-77
2021/09/13 05:53:03;;;;;;;;;;;16.90;99.90;;;;;;5967049;23;20109;-76
2021/09/13 05:55:29;;;;;;;;;;;16.90;99.90;;;;;;5966894;23;20154;-77
2021/09/13 05:57:54;;;;;;;;;;;16.80;99.90;;;;;;5969089;23;25102;-77
2021/09/13 06:00:20;;;;;;;;;;;16.90;99.90;;;;;;5969164;23;25060;-77
2021/09/13 06:02:45;;;;;;;;;;;16.90;99.90;;;;;;5967960;23;20210;-76
2021/09/13 06:05:11;;;;;;;;;;;16.90;99.90;;;;;;5936663;23;20136;-77
2021/09/13 06:07:39;;;;;;;;;;;16.90;99.90;;;;;;5967683;23;20647;-78
2021/09/13 06:10:04;;;;;;;;;;;16.90;99.90;;;;;;5944925;23;20634;-77
2021/09/13 06:12:30;;;;;;;;;;;16.90;99.90;;;;;;5969550;23;20142;-77
2021/09/13 06:14:56;;;;;;;;;;;17.00;99.90;;;;;;5943736;23;25040;-78
2021/09/13 06:17:21;;;;;;;;;;;16.90;99.90;;;;;;5944847;23;20095;-78
2021/09/13 06:19:47;;;;;;;;;;;16.90;99.90;;;;;;5970594;23;25089;-77
2021/09/13 06:22:13;;;;;;;;;;;16.90;99.90;;;;;;5963367;23;20116;-78
2021/09/13 06:24:39;;;;;;;;;;;16.90;99.90;;;;;;5965417;23;20083;-78
2021/09/13 06:27:06;;;;;;;;;;;16.90;99.90;;;;;;5969073;23;20140;-78
2021/09/13 06:29:32;;;;;;;;;;;16.90;99.90;;;;;;5971241;23;25090;-78
2021/09/13 06:31:57;;;;;;;;;;;16.90;99.90;;;;;;5943823;23;20129;-78
2021/09/13 06:34:23;;;;;;;;;;;16.90;99.90;;;;;;5970308;23;25063;-77
2021/09/13 06:36:48;;;;;;;;;;;16.90;99.90;;;;;;5950417;23;20248;-77
2021/09/13 06:39:14;;;;;;;;;;;17.00;99.90;;;;;;5940059;23;20259;-77
2021/09/13 06:41:42;;;;;;;;;;;17.00;99.90;;;;;;5955690;23;20260;-78
2021/09/13 06:44:08;;;;;;;;;;;17.00;99.90;;;;;;5945346;23;20372;-78
2021/09/13 06:49:05;;;;;;;;;;;17.10;99.90;;;;;;5980769;23;20099;-77
2021/09/13 06:51:30;;;;;;;;;;;17.10;99.90;;;;;;5946064;23;25048;-78
2021/09/13 06:53:56;;;;;;;;;;;17.10;99.90;;;;;;5971726;23;25095;-78
2021/09/13 06:56:21;;;;;;;;;;;17.10;99.90;;;;;;5946242;23;25085;-75
2021/09/13 06:58:47;;;;;;;;;;;17.10;99.90;;;;;;5971828;23;20148;-76
2021/09/13 07:01:12;;;;;;;;;;;17.10;99.90;;;;;;5972631;23;20021;-76
2021/09/13 07:03:39;;;;;;;;;;;17.10;99.90;;;;;;5969897;23;25076;-76
2021/09/13 07:06:05;;;;;;;;;;;17.10;99.90;;;;;;5945704;23;20113;-77
2021/09/13 07:08:32;;;;;;;;;;;17.10;99.90;;;;;;5969531;23;25039;-77
2021/09/13 07:10:59;;;;;;;;;;;17.10;99.90;;;;;;5970457;23;20111;-77
2021/09/13 07:13:24;;;;;;;;;;;17.10;99.90;;;;;;5943027;23;25073;-77
2021/09/13 07:15:50;;;;;;;;;;;17.10;99.90;;;;;;5966005;23;20462;-77
2021/09/13 07:18:16;;;;;;;;;;;17.10;99.90;;;;;;5972856;23;25080;-77
2021/09/13 07:20:41;;;;;;;;;;;17.10;99.90;;;;;;5972349;23;20130;-77
2021/09/13 07:23:07;;;;;;;;;;;17.10;99.90;;;;;;5972502;23;20103;-77
2021/09/13 07:25:35;;;;;;;;;;;17.20;99.90;;;;;;5971175;23;25048;-77
2021/09/13 07:28:01;;;;;;;;;;;17.20;99.90;;;;;;5973457;23;25051;-77
2021/09/13 07:30:26;;;;;;;;;;;17.30;99.90;;;;;;5947993;23;20136;-78
2021/09/13 07:32:52;;;;;;;;;;;17.30;99.90;;;;;;5973105;23;20486;-77
2021/09/13 07:35:17;;;;;;;;;;;17.30;99.90;;;;;;5969972;23;20351;-76
2021/09/13 07:37:43;;;;;;;;;;;17.40;99.90;;;;;;5972783;23;25054;-78
2021/09/13 07:40:09;;;;;;;;;;;17.50;99.90;;;;;;5969331;23;25073;-78
2021/09/13 07:42:34;;;;;;;;;;;17.50;99.90;;;;;;5968927;23;20119;-77
2021/09/13 07:45:01;;;;;;;;;;;17.40;99.90;;;;;;5972447;23;20121;-78
2021/09/13 07:47:27;;;;;;;;;;;17.40;99.90;;;;;;5972552;23;25113;-77
2021/09/13 07:49:52;;;;;;;;;;;17.40;99.90;;;;;;5972921;23;25041;-77
2021/09/13 07:52:18;;;;;;;;;;;17.40;99.90;;;;;;5945757;23;25045;-77
2021/09/13 07:54:44;;;;;;;;;;;17.40;99.90;;;;;;5971778;23;25058;-77
2021/09/13 07:57:09;;;;;;;;;;;17.50;99.90;;;;;;5969702;23;20093;-77
2021/09/13 07:59:35;;;;;;;;;;;17.50;99.90;;;;;;5971833;23;25108;-77
2021/09/13 08:02:00;;;;;;;;;;;17.50;99.90;;;;;;5946394;23;20100;-77
2021/09/13 08:04:26;;;;;;;;;;;17.50;99.90;;;;;;5972851;23;25064;-77
2021/09/13 08:06:51;;;;;;;;;;;17.50;99.90;;;;;;5972563;23;20074;-77
2021/09/13 08:09:16;;;;;;;;;;;17.50;99.90;;;;;;5970828;23;25058;-77
2021/09/13 08:11:42;;;;;;;;;;;17.50;99.90;;;;;;5972222;23;19969;-77
2021/09/13 08:14:07;;;;;;;;;;;17.40;99.90;;;;;;5971532;23;25120;-77
2021/09/13 08:16:33;;;;;;;;;;;17.40;99.90;;;;;;5946325;23;19981;-76
2021/09/13 08:19:00;;;;;;;;;;;17.30;99.90;;;;;;5948613;23;25057;-76
2021/09/13 08:21:27;;;;;;;;;;;17.30;99.90;;;;;;5971469;23;20141;-77
2021/09/13 08:23:52;;;;;;;;;;;17.20;99.90;;;;;;5971232;23;20079;-77
2021/09/13 08:26:18;;;;;;;;;;;17.20;99.90;;;;;;5946377;23;20134;-77
2021/09/13 08:28:44;;;;;;;;;;;17.20;99.90;;;;;;5972517;23;25033;-77
2021/09/13 08:31:09;;;;;;;;;;;17.20;99.90;;;;;;5948261;23;25053;-77
2021/09/13 08:33:35;;;;;;;;;;;17.20;99.90;;;;;;5973735;23;25088;-77
2021/09/13 08:36:01;;;;;;;;;;;17.20;99.90;;;;;;5975849;23;20114;-77
2021/09/13 08:38:26;;;;;;;;;;;17.20;99.90;;;;;;5977166;23;20101;-77
2021/09/13 08:40:52;;;;;;;;;;;17.30;99.90;;;;;;5976063;23;20110;-77
2021/09/13 08:43:18;;;;;;;;;;;17.30;99.90;;;;;;5955905;23;20091;-77
2021/09/13 08:45:59;;;;;;;;;;;17.30;99.90;;;;;;5956993;23;25068;-77
2021/09/13 08:49:03;;;;;;;;;;;17.40;99.90;;;;;;5981404;23;25052;-77
2021/09/13 08:51:29;;;;;;;;;;;17.50;99.90;;;;;;5973166;23;25052;-76
2021/09/13 08:53:55;;;;;;;;;;;17.50;99.90;;;;;;5970949;23;25062;-77
2021/09/13 08:56:27;;;;;;;;;;;17.50;99.90;;;;;;5970506;23;20551;-77
2021/09/13 08:58:54;;;;;;;;;;;17.50;99.90;;;;;;5971701;23;20520;-77
2021/09/13 09:01:19;;;;;;;;;;;17.50;99.90;;;;;;5970283;23;25046;-77
2021/09/13 09:03:47;;;;;;;;;;;17.60;99.90;;;;;;5969919;23;25054;-77
2021/09/13 09:06:35;;;;;;;;;;;17.60;99.90;;;;;;5943783;23;25047;-77
2021/09/13 09:09:02;;;;;;;;;;;17.70;99.90;;;;;;5945299;23;20126;-76
2021/09/13 09:11:48;;;;;;;;;;;17.70;99.90;;;;;;5968073;23;25076;-76
2021/09/13 09:14:29;;;;;;;;;;;17.80;99.90;;;;;;5953389;23;19982;-77
2021/09/13 09:16:55;;;;;;;;;;;17.80;99.90;;;;;;5986517;23;20265;-77
2021/09/13 09:19:21;;;;;;;;;;;17.90;99.90;;;;;;5974135;23;20156;-77
2021/09/13 09:21:46;;;;;;;;;;;17.90;99.90;;;;;;5970302;23;20743;-76
2021/09/13 09:24:12;;;;;;;;;;;17.90;99.90;;;;;;5970138;23;25066;-76
2021/09/13 09:26:37;;;;;;;;;;;17.90;99.90;;;;;;5966437;23;25052;-76
2021/09/13 09:29:02;;;;;;;;;;;17.90;99.90;;;;;;5970112;23;25044;-76
2021/09/13 09:31:35;;;;;;;;;;;17.90;99.90;;;;;;5970361;23;25043;-77
2021/09/13 09:34:17;;;;;;;;;;;17.90;99.90;;;;;;5944749;23;20156;-77
2021/09/13 09:36:57;;;;;;;;;;;17.90;99.90;;;;;;5968522;23;25058;-78
2021/09/13 09:39:28;;;;;;;;;;;17.90;99.90;;;;;;5967835;23;25071;-76
2021/09/13 09:41:56;;;;;;;;;;;17.90;99.90;;;;;;5944801;23;20473;-76
2021/09/13 09:44:22;;;;;;;;;;;17.90;99.90;;;;;;5965540;23;25060;-76
2021/09/13 09:46:47;;;;;;;;;;;17.90;99.90;;;;;;5969497;23;20174;-78
2021/09/13 09:49:21;;;;;;;;;;;18.00;99.90;;;;;;5968772;23;20093;-76
2021/09/13 09:51:50;;;;;;;;;;;18.10;99.90;;;;;;5947031;23;20222;-76
2021/09/13 09:54:16;;;;;;;;;;;18.10;99.90;;;;;;5969572;23;25122;-76
2021/09/13 09:56:44;;;;;;;;;;;18.10;99.90;;;;;;5944212;23;19961;-76
2021/09/13 09:59:10;;;;;;;;;;;18.10;99.90;;;;;;5971341;23;25062;-76
2021/09/13 10:01:38;;;;;;;;;;;18.20;99.90;;;;;;5971062;23;20081;-76
2021/09/13 10:04:14;;;;;;;;;;;18.20;99.90;;;;;;5970995;23;20696;-76
2021/09/13 10:06:41;;;;;;;;;;;18.20;99.90;;;;;;5945091;23;20091;-76
2021/09/13 10:09:07;;;;;;;;;;;18.20;99.90;;;;;;5978180;23;20105;-77
2021/09/13 10:11:32;;;;;;;;;;;18.30;99.90;;;;;;5946321;23;25058;-76
2021/09/13 10:13:58;;;;;;;;;;;18.30;99.90;;;;;;5966469;23;25091;-76
2021/09/13 10:16:24;;;;;;;;;;;18.30;99.90;;;;;;5968673;23;20112;-76
2021/09/13 10:18:49;;;;;;;;;;;18.40;99.90;;;;;;5945847;23;25080;-76
2021/09/13 10:21:16;;;;;;;;;;;18.30;99.90;;;;;;5970523;23;25037;-76
2021/09/13 10:23:43;;;;;;;;;;;18.30;99.90;;;;;;5972542;23;20153;-77
2021/09/13 10:26:08;;;;;;;;;;;18.20;99.90;;;;;;5945539;23;20142;-77
2021/09/13 10:28:34;;;;;;;;;;;18.20;99.90;;;;;;5971375;23;20071;-76
2021/09/13 10:30:59;;;;;;;;;;;18.20;99.90;;;;;;5969896;23;20212;-76
2021/09/13 10:33:24;;;;;;;;;;;18.20;99.90;;;;;;5972114;23;20126;-76
2021/09/13 10:35:55;;;;;;;;;;;18.20;99.90;;;;;;5969312;23;20085;-76
2021/09/13 10:38:39;;;;;;;;;;;18.20;99.90;;;;;;5948714;23;19980;-76
2021/09/13 10:41:04;;;;;;;;;;;18.20;99.90;;;;;;5971767;23;25067;-76
2021/09/13 10:43:30;;;;;;;;;;;18.30;99.90;;;;;;5948760;23;20430;-76
2021/09/13 10:45:55;;;;;;;;;;;18.30;99.90;;;;;;5971522;23;25135;-76
2021/09/13 10:48:21;;;;;;;;;;;18.30;99.90;;;;;;5980535;23;19972;-76
2021/09/13 10:50:53;;;;;;;;;;;18.30;99.90;;;;;;5968801;23;29079;-76
2021/09/13 10:53:22;;;;;;;;;;;18.30;99.90;;;;;;5973992;23;24403;-76
2021/09/13 10:55:49;;;;;;;;;;;18.40;99.90;;;;;;5972702;23;20579;-76
2021/09/13 10:58:33;;;;;;;;;;;18.50;99.90;;;;;;5974860;23;20579;-78
2021/09/13 11:01:00;;;;;;;;;;;18.50;99.90;;;;;;5947946;23;20611;-76
2021/09/13 11:03:29;;;;;;;;;;;18.60;99.90;;;;;;5947597;23;20620;-76
2021/09/13 11:06:01;;;;;;;;;;;18.60;99.90;;;;;;5973558;23;20555;-76
2021/09/13 11:08:27;;;;;;;;;;;18.80;99.90;;;;;;5976054;23;20556;-75
2021/09/13 11:10:52;;;;;;;;;;;18.90;99.90;;;;;;5977815;23;20692;-76
2021/09/13 11:13:18;;;;;;;;;;;19.00;99.90;;;;;;5974811;23;21005;-76
2021/09/13 11:15:46;;;;;;;;;;;19.20;99.90;;;;;;5972660;23;20892;-75
2021/09/13 11:18:12;;;;;;;;;;;19.20;99.90;;;;;;5949892;23;20550;-76
2021/09/13 11:20:37;;;;;;;;;;;19.30;99.90;;;;;;5972849;23;20552;-76
2021/09/13 11:23:03;;;;;;;;;;;19.30;99.90;;;;;;5950155;23;20547;-75
2021/09/13 11:25:28;;;;;;;;;;;19.20;99.90;;;;;;5972169;23;20542;-76
2021/09/13 11:28:00;;;;;;;;;;;19.30;99.90;;;;;;5973650;23;20738;-77
2021/09/13 11:30:41;;;;;;;;;;;19.40;99.90;;;;;;5974395;23;20554;-77
2021/09/13 11:33:07;;;;;;;;;;;19.40;99.90;;;;;;5977647;23;20458;-77
2021/09/13 11:35:32;;;;;;;;;;;19.40;99.90;;;;;;5978081;23;20887;-77
2021/09/13 11:37:59;;;;;;;;;;;19.50;99.90;;;;;;5971274;23;20584;-77
2021/09/13 11:40:25;;;;;;;;;;;19.50;99.90;;;;;;5971402;23;20538;-77
2021/09/13 11:42:51;;;;;;;;;;;19.40;99.90;;;;;;5971703;23;20587;-77
2021/09/13 11:45:16;;;;;;;;;;;19.40;99.90;;;;;;5970462;23;20565;-77
2021/09/13 11:47:42;;;;;;;;;;;19.50;99.90;;;;;;5965622;23;20578;-76
2021/09/13 11:50:09;;;;;;;;;;;19.60;99.90;;;;;;5970637;23;20605;-76
2021/09/13 11:52:35;;;;;;;;;;;19.70;99.90;;;;;;5946831;23;20640;-76
2021/09/13 11:55:06;;;;;;;;;;;19.80;99.90;;;;;;5945752;23;21008;-78
2021/09/13 11:57:33;;;;;;;;;;;19.90;99.90;;;;;;5967492;23;20582;-77
2021/09/13 12:00:28;;;;;;;;;;;20.10;99.90;;;;;;5951110;23;20564;-76
2021/09/13 12:03:03;;;;;;;;;;;20.20;99.90;;;;;;5980328;23;20574;-77
2021/09/13 12:05:30;;;;;;;;;;;20.30;99.90;;;;;;5951877;23;20562;-76
2021/09/13 12:07:56;;;;;;;;;;;20.30;99.90;;;;;;5983914;23;20554;-76
2021/09/13 12:10:23;;;;;;;;;;;20.30;99.90;;;;;;5982675;23;21074;-77
2021/09/13 12:12:50;;;;;;;;;;;20.20;99.90;;;;;;5972598;23;20540;-76
2021/09/13 12:15:17;;;;;;;;;;;20.10;99.90;;;;;;5948469;23;20405;-77
2021/09/13 12:17:46;;;;;;;;;;;20.00;99.90;;;;;;5970635;23;20337;-76
2021/09/13 12:20:13;;;;;;;;;;;19.90;99.90;;;;;;5947985;23;20281;-76
2021/09/13 12:22:39;;;;;;;;;;;19.80;99.90;;;;;;5966874;23;20469;-76
2021/09/13 12:25:23;;;;;;;;;;;19.60;99.90;;;;;;5934942;23;25102;-77
2021/09/13 12:27:53;;;;;;;;;;;19.50;99.90;;;;;;5962287;23;25079;-77
2021/09/13 12:30:21;;;;;;;;;;;19.50;99.90;;;;;;5960644;23;20130;-76
2021/09/13 12:32:51;;;;;;;;;;;19.30;99.90;;;;;;5936183;23;25034;-74
2021/09/13 12:35:19;;;;;;;;;;;19.30;99.90;;;;;;5962041;23;20083;-74
2021/09/13 12:37:52;;;;;;;;;;;19.20;99.90;;;;;;5934738;23;20147;-77
2021/09/13 12:40:17;;;;;;;;;;;19.20;99.90;;;;;;5959122;23;20505;-77
2021/09/13 12:42:54;;;;;;;;;;;19.20;99.90;;;;;;5960936;23;20126;-78
2021/09/13 12:45:20;;;;;;;;;;;19.10;99.90;;;;;;5959402;23;25103;-76
2021/09/13 12:47:50;;;;;;;;;;;19.10;99.90;;;;;;5933165;23;20111;-78
2021/09/13 12:50:29;;;;;;;;;;;19.10;99.90;;;;;;5937139;23;25039;-77
2021/09/13 12:52:54;;;;;;;;;;;19.10;99.90;;;;;;5938733;23;20152;-77
2021/09/13 12:55:21;;;;;;;;;;;19.10;99.90;;;;;;5935081;23;20039;-78
2021/09/13 12:57:46;;;;;;;;;;;19.20;99.90;;;;;;5934603;23;25054;-78
2021/09/13 13:00:13;;;;;;;;;;;19.30;99.90;;;;;;5961893;23;25107;-78
2021/09/13 13:02:39;;;;;;;;;;;19.50;99.90;;;;;;5960120;23;25067;-78
2021/09/13 13:05:05;;;;;;;;;;;19.70;99.90;;;;;;5938408;23;20570;-78
2021/09/13 13:07:31;;;;;;;;;;;19.80;99.90;;;;;;5959520;23;19980;-78
2021/09/13 13:09:56;;;;;;;;;;;19.80;99.90;;;;;;5963207;23;20102;-78
2021/09/13 13:12:22;;;;;;;;;;;19.80;99.90;;;;;;5936340;23;25044;-78
2021/09/13 13:14:48;;;;;;;;;;;19.80;99.90;;;;;;5934787;23;25057;-77
2021/09/13 13:17:13;;;;;;;;;;;19.90;99.90;;;;;;5959039;23;25089;-77
2021/09/13 13:19:39;;;;;;;;;;;19.80;99.90;;;;;;5934593;23;25129;-77
2021/09/13 13:22:05;;;;;;;;;;;19.70;99.90;;;;;;5935392;23;25041;-78
2021/09/13 13:24:30;;;;;;;;;;;19.60;99.90;;;;;;5940520;23;25107;-76
2021/09/13 13:26:58;;;;;;;;;;;19.50;99.90;;;;;;5959578;23;19979;-77
2021/09/13 13:29:24;;;;;;;;;;;19.40;99.90;;;;;;5959120;23;25107;-77
2021/09/13 13:31:52;;;;;;;;;;;19.40;99.90;;;;;;5935366;23;25057;-77
2021/09/13 13:34:17;;;;;;;;;;;19.30;99.90;;;;;;5957910;23;25054;-76
2021/09/13 13:36:43;;;;;;;;;;;19.30;99.90;;;;;;5960319;23;20351;-76
2021/09/13 13:39:11;;;;;;;;;;;19.20;99.90;;;;;;5959608;23;20150;-76
2021/09/13 13:41:36;;;;;;;;;;;19.20;99.90;;;;;;5957077;23;20730;-76
2021/09/13 13:44:02;;;;;;;;;;;19.20;99.90;;;;;;5934821;23;20124;-76
2021/09/13 13:46:29;;;;;;;;;;;19.20;99.90;;;;;;5959428;23;20009;-77
2021/09/13 13:48:55;;;;;;;;;;;19.20;99.90;;;;;;5957714;23;20585;-77
2021/09/13 13:51:21;;;;;;;;;;;19.20;99.90;;;;;;5960258;23;20462;-77
2021/09/13 13:53:46;;;;;;;;;;;19.20;99.90;;;;;;5959633;23;25057;-77
2021/09/13 13:56:12;;;;;;;;;;;19.20;99.90;;;;;;5956432;23;25104;-76
2021/09/13 13:58:37;;;;;;;;;;;19.20;99.90;;;;;;5960478;23;20160;-77
2021/09/13 14:01:03;;;;;;;;;;;19.30;99.90;;;;;;5963658;23;20421;-77
2021/09/13 14:03:28;;;;;;;;;;;19.30;99.90;;;;;;5934092;23;20089;-75
2021/09/13 14:05:54;;;;;;;;;;;19.40;99.90;;;;;;5961918;23;25105;-76
2021/09/13 14:08:19;;;;;;;;;;;19.50;99.90;;;;;;5933647;23;20671;-79
2021/09/13 14:10:44;;;;;;;;;;;19.60;99.90;;;;;;5957935;23;20189;-78
2021/09/13 14:13:10;;;;;;;;;;;19.70;99.90;;;;;;5934297;23;25070;-79
2021/09/13 14:15:35;;;;;;;;;;;19.80;99.90;;;;;;5957281;23;20122;-78
2021/09/13 14:18:01;;;;;;;;;;;20.00;99.90;;;;;;5934352;23;20129;-78
2021/09/13 14:20:26;;;;;;;;;;;20.10;99.90;;;;;;5961259;23;25100;-78